createdAt,value
2023-01-23T00:02:19.281Z,4.22
2023-01-23T00:07:21.122Z,4.22
2023-01-23T00:12:23.013Z,4.23
2023-01-23T00:17:27.777Z,4.24
2023-01-23T00:22:31.181Z,4.25
2023-01-23T00:27:33.836Z,4.25
2023-01-23T00:32:35.799Z,4.23
2023-01-23T00:37:38.863Z,4.22
2023-01-23T00:42:40.924Z,4.22
2023-01-23T00:47:43.077Z,4.21
2023-01-23T00:52:45.475Z,4.21
2023-01-23T00:57:47.852Z,4.21
2023-01-23T01:02:50.189Z,4.20
2023-01-23T01:07:54.502Z,4.22
2023-01-23T01:12:57.304Z,4.21
2023-01-23T01:17:59.537Z,4.22
2023-01-23T01:23:01.893Z,4.22
2023-01-23T01:28:04.542Z,4.20
2023-01-23T01:33:06.599Z,4.18
2023-01-23T01:38:09.945Z,4.18
2023-01-23T01:43:21.322Z,4.18
2023-01-23T01:48:27.640Z,4.18
2023-01-23T01:53:32.684Z,4.17
2023-01-23T01:58:34.903Z,4.17
2023-01-23T02:03:37.718Z,4.15
2023-01-23T02:08:55.291Z,4.16
2023-01-23T02:13:57.306Z,4.17
2023-01-23T02:19:04.133Z,4.18
2023-01-23T02:24:17.213Z,4.19
2023-01-23T02:29:20.360Z,4.19
2023-01-23T02:34:27.610Z,4.18
2023-01-23T02:39:34.511Z,4.16
2023-01-23T02:44:37.113Z,4.07
2023-01-23T02:49:40.472Z,4.06
2023-01-23T02:54:45.953Z,4.05
2023-01-23T03:00:07.005Z,4.06
2023-01-23T03:05:11.078Z,4.06
2023-01-23T03:10:13.046Z,4.11
2023-01-23T03:15:18.282Z,4.12
2023-01-23T03:20:22.510Z,4.12
2023-01-23T03:25:24.613Z,4.13
2023-01-23T03:30:28.133Z,4.13
2023-01-23T03:35:30.101Z,4.13
2023-01-23T03:40:50.706Z,4.11
2023-01-23T03:45:54.184Z,4.05
2023-01-23T03:50:56.995Z,4.03
2023-01-23T03:55:59.548Z,4.04
2023-01-23T04:01:05.032Z,4.05
2023-01-23T04:06:09.622Z,4.04
2023-01-23T04:11:12.798Z,4.04
2023-01-23T04:16:16.743Z,4.02
2023-01-23T04:21:18.705Z,4.02
2023-01-23T04:26:20.681Z,4.03
2023-01-23T04:31:22.670Z,4.05
2023-01-23T04:36:24.863Z,4.07
2023-01-23T04:41:29.626Z,4.07
2023-01-23T04:46:42.848Z,4.07
2023-01-23T04:51:50.165Z,4.03
2023-01-23T04:56:55.396Z,3.96
2023-01-23T05:01:57.355Z,3.96
2023-01-23T05:07:00.115Z,3.95
2023-01-23T05:12:04.734Z,3.98
2023-01-23T05:17:08.904Z,3.99
2023-01-23T05:22:15.531Z,3.99
2023-01-23T05:27:17.435Z,4.01
2023-01-23T05:32:22.834Z,4.04
2023-01-23T05:37:43.069Z,4.04
2023-01-23T05:42:45.865Z,4.05
2023-01-23T05:48:10.986Z,4.07
2023-01-23T05:53:13.123Z,4.08
2023-01-23T05:58:16.203Z,4.07
2023-01-23T06:03:45.319Z,4.04
2023-01-23T06:09:05.679Z,4.03
2023-01-23T06:14:07.643Z,4.03
2023-01-23T06:19:10.865Z,4.02
2023-01-23T06:24:12.890Z,4.03
2023-01-23T06:29:14.578Z,4.05
2023-01-23T06:34:16.523Z,4.06
2023-01-23T06:39:30.295Z,4.07
2023-01-23T06:44:32.607Z,4.07
2023-01-23T06:49:34.949Z,4.07
2023-01-23T06:54:38.024Z,4.08
2023-01-23T06:59:41.269Z,4.09
2023-01-23T07:04:45.304Z,4.09
2023-01-23T07:09:47.825Z,4.10
2023-01-23T07:15:00.256Z,4.13
2023-01-23T07:20:10.511Z,4.09
2023-01-23T07:25:18.946Z,3.99
2023-01-23T07:30:21.847Z,3.91
2023-01-23T07:35:24.019Z,3.89
2023-01-23T07:40:25.839Z,3.84
2023-01-23T07:45:27.572Z,3.70
2023-01-23T07:50:29.651Z,3.69
2023-01-23T07:55:31.674Z,3.78
2023-01-23T08:00:33.615Z,3.84
2023-01-23T08:05:35.761Z,3.89
2023-01-23T08:10:37.496Z,3.98
2023-01-23T08:15:39.244Z,4.04
2023-01-23T08:20:41.245Z,4.11
2023-01-23T08:25:42.937Z,4.16
2023-01-23T08:30:45.097Z,4.21
2023-01-23T08:35:55.675Z,4.25
2023-01-23T08:41:00.476Z,4.32
2023-01-23T08:46:02.666Z,4.38
2023-01-23T08:51:07.614Z,4.44
2023-01-23T08:56:18.142Z,4.49
2023-01-23T09:01:22.680Z,4.52
2023-01-23T09:06:24.522Z,4.56
2023-01-23T09:11:26.272Z,4.60
2023-01-23T09:16:28.007Z,4.63
2023-01-23T09:21:29.746Z,4.65
2023-01-23T09:26:31.427Z,4.70
2023-01-23T09:31:33.185Z,4.76
2023-01-23T09:36:42.819Z,4.85
2023-01-23T09:41:46.336Z,4.94
2023-01-23T09:47:02.303Z,5.00
2023-01-23T09:52:15.243Z,5.07
2023-01-23T09:57:51.727Z,5.11
2023-01-23T10:02:54.756Z,5.14
2023-01-23T10:08:11.353Z,5.18
2023-01-23T10:13:52.621Z,5.20
2023-01-23T10:19:22.346Z,5.19
2023-01-23T10:24:45.426Z,5.19
2023-01-23T10:29:53.144Z,5.20
2023-01-23T10:35:00.173Z,5.22
2023-01-23T10:40:08.322Z,5.26
2023-01-23T10:45:16.094Z,5.22
2023-01-23T10:50:35.425Z,5.22
2023-01-23T10:55:45.650Z,5.22
2023-01-23T11:00:47.922Z,5.06
2023-01-23T11:06:05.160Z,5.11
2023-01-23T11:11:16.621Z,5.11
2023-01-23T11:16:23.911Z,4.90
2023-01-23T11:21:32.672Z,4.86
2023-01-23T11:26:36.061Z,4.86
2023-01-23T11:31:37.937Z,4.87
2023-01-23T11:36:51.906Z,4.92
2023-01-23T11:41:54.525Z,5.04
2023-01-23T11:47:21.392Z,5.04
2023-01-23T11:52:38.349Z,5.16
2023-01-23T11:57:53.189Z,5.08
2023-01-23T12:03:19.689Z,4.87
2023-01-23T12:08:36.511Z,4.85
2023-01-23T12:13:49.270Z,5.01
2023-01-23T12:19:31.904Z,5.16
2023-01-23T12:24:42.977Z,5.22
2023-01-23T12:29:47.689Z,5.31
2023-01-23T12:34:49.378Z,5.32
2023-01-23T12:40:00.257Z,5.29
2023-01-23T12:45:17.866Z,5.26
2023-01-23T12:50:47.611Z,5.20
2023-01-23T12:55:58.767Z,5.26
2023-01-23T13:01:28.557Z,5.24
2023-01-23T13:06:50.782Z,5.08
2023-01-23T13:12:08.983Z,4.96
2023-01-23T13:17:38.117Z,5.08
2023-01-23T13:22:39.921Z,5.17
2023-01-23T13:27:55.937Z,5.37
2023-01-23T13:33:01.967Z,5.56
2023-01-23T13:38:29.540Z,5.71
2023-01-23T13:43:50.975Z,5.70
2023-01-23T14:21:46.374Z,5.77
2023-01-23T14:26:50.728Z,5.80
2023-01-23T14:31:54.631Z,5.81
2023-01-23T14:37:06.563Z,5.84
2023-01-23T14:42:16.521Z,5.82
2023-01-23T14:47:42.616Z,5.80
2023-01-23T14:52:44.531Z,5.81
2023-01-23T14:57:47.073Z,5.79
2023-01-23T15:02:54.467Z,5.79
2023-01-23T15:08:04.248Z,5.78
2023-01-23T15:13:12.778Z,5.76
2023-01-23T15:18:27.703Z,5.77
2023-01-23T15:23:32.009Z,5.77
2023-01-23T15:28:56.335Z,5.73
2023-01-23T15:34:11.984Z,5.72
2023-01-23T15:39:26.286Z,5.70
2023-01-23T15:44:30.413Z,5.66
2023-01-23T15:49:35.216Z,5.57
2023-01-23T15:54:40.494Z,5.54
2023-01-23T15:59:42.611Z,5.53
2023-01-23T16:04:45.649Z,5.48
2023-01-23T16:09:49.896Z,5.46
2023-01-23T16:14:51.581Z,5.46
2023-01-23T16:19:54.456Z,5.43
2023-01-23T16:24:57.982Z,5.39
2023-01-23T16:30:01.169Z,5.37
2023-01-23T16:35:03.054Z,5.34
2023-01-23T16:40:05.210Z,5.35
2023-01-23T16:45:24.125Z,5.29
2023-01-23T16:50:34.436Z,5.27
2023-01-23T16:55:41.729Z,5.23
2023-01-23T17:00:43.831Z,5.20
2023-01-23T17:05:45.546Z,5.20
2023-01-23T17:10:51.124Z,5.21
2023-01-23T17:15:55.399Z,5.16
2023-01-23T17:20:58.564Z,5.17
2023-01-23T17:26:01.823Z,5.17
2023-01-23T17:31:05.383Z,5.16
2023-01-23T17:36:08.033Z,5.11
2023-01-23T17:41:16.644Z,4.99
2023-01-23T17:46:27.925Z,4.97
2023-01-23T17:51:32.679Z,4.91
2023-01-23T17:56:35.091Z,4.92
2023-01-23T18:01:37.756Z,4.96
2023-01-23T18:06:39.636Z,4.97
2023-01-23T18:11:49.725Z,4.96
2023-01-23T18:16:51.965Z,4.93
2023-01-23T18:21:56.251Z,4.95
2023-01-23T18:27:12.633Z,4.98
2023-01-23T18:32:50.932Z,4.99
2023-01-23T18:38:01.180Z,5.01
2023-01-23T18:43:26.377Z,5.00
2023-01-23T18:48:28.637Z,4.94
2023-01-23T18:53:42.811Z,4.95
2023-01-23T18:59:03.077Z,4.97
2023-01-23T19:04:15.389Z,4.97
2023-01-23T19:09:21.178Z,4.90
2023-01-23T19:14:57.405Z,4.88
2023-01-23T19:20:08.788Z,4.89
2023-01-23T19:25:17.513Z,4.91
2023-01-23T19:30:22.355Z,4.91
2023-01-23T19:35:24.584Z,4.92
2023-01-23T19:40:26.672Z,4.92
2023-01-23T19:45:30.459Z,4.87
2023-01-23T19:50:50.737Z,4.88
2023-01-23T19:56:16.051Z,4.86
2023-01-23T20:01:40.484Z,4.85
2023-01-23T20:06:45.460Z,4.85
2023-01-23T20:11:48.467Z,4.80
2023-01-23T20:16:50.821Z,4.83
2023-01-23T20:21:52.764Z,4.87
2023-01-23T20:26:54.988Z,4.88
2023-01-23T20:31:56.801Z,4.88
2023-01-23T20:36:58.732Z,4.85
2023-01-23T20:42:00.712Z,4.88
2023-01-23T20:47:02.666Z,4.86
2023-01-23T20:52:25.596Z,4.83
2023-01-23T20:57:47.426Z,4.85
2023-01-23T21:02:49.697Z,4.85
2023-01-23T21:07:51.613Z,4.89
2023-01-23T21:12:53.365Z,4.89
2023-01-23T21:17:55.155Z,4.89
2023-01-23T21:22:56.982Z,4.90
2023-01-23T21:27:58.723Z,4.91
2023-01-23T21:33:00.779Z,4.89
2023-01-23T21:38:03.204Z,4.89
2023-01-23T21:43:04.988Z,4.89
2023-01-23T21:48:06.775Z,4.89
2023-01-23T21:53:10.157Z,4.91
2023-01-23T21:58:14.413Z,4.94
2023-01-23T22:03:17.326Z,4.99
2023-01-23T22:08:19.100Z,5.02
2023-01-23T22:13:20.822Z,5.06
2023-01-23T22:18:22.908Z,5.09
2023-01-23T22:23:25.397Z,5.12
2023-01-23T22:28:28.085Z,5.13
2023-01-23T22:33:39.944Z,5.13
2023-01-23T22:38:42.731Z,5.13
2023-01-23T22:43:44.472Z,5.14
2023-01-23T22:48:46.582Z,5.12
2023-01-23T22:53:48.999Z,5.13
2023-01-23T22:59:09.296Z,5.13
2023-01-23T23:04:11.355Z,5.13
2023-01-23T23:09:13.628Z,5.16
2023-01-23T23:14:15.833Z,5.14
2023-01-23T23:19:17.936Z,5.12
2023-01-23T23:24:19.939Z,5.12
2023-01-23T23:29:21.619Z,5.13
2023-01-23T23:34:25.141Z,5.14
2023-01-23T23:39:27.487Z,5.15
2023-01-23T23:44:30.462Z,5.13
2023-01-23T23:49:33.884Z,5.13
2023-01-23T23:54:35.686Z,5.09
2023-01-23T23:59:37.904Z,5.10
